createdAt,value
2023-05-02T00:00:00.970Z,13.50
2023-05-02T00:02:29.757Z,13.48
2023-05-02T00:04:57.854Z,13.50
2023-05-02T00:07:26.671Z,13.50
2023-05-02T00:09:54.992Z,13.50
2023-05-02T00:12:23.093Z,13.50
2023-05-02T00:14:52.553Z,13.56
2023-05-02T00:17:22.026Z,13.55
2023-05-02T00:19:49.896Z,13.54
2023-05-02T00:22:17.823Z,13.60
2023-05-02T00:24:45.812Z,13.63
2023-05-02T00:27:14.277Z,13.70
2023-05-02T00:29:42.501Z,13.83
2023-05-02T00:32:11.823Z,14.00
2023-05-02T00:34:39.757Z,14.08
2023-05-02T00:37:07.652Z,13.92
2023-05-02T00:39:35.859Z,13.54
2023-05-02T00:42:04.433Z,13.64
2023-05-02T00:44:32.691Z,13.60
2023-05-02T00:47:02.622Z,13.49
2023-05-02T00:49:32.594Z,13.50
2023-05-02T00:52:00.862Z,13.56
2023-05-02T00:54:28.994Z,13.57
2023-05-02T00:56:56.929Z,13.59
2023-05-02T00:59:24.872Z,13.73
2023-05-02T01:02:01.741Z,13.83
2023-05-02T01:04:41.702Z,13.92
2023-05-02T01:07:24.016Z,13.91
2023-05-02T01:10:03.228Z,13.79
2023-05-02T01:12:36.510Z,13.78
2023-05-02T01:15:08.681Z,13.74
2023-05-02T01:17:38.450Z,13.64
2023-05-02T01:20:12.875Z,13.71
2023-05-02T01:22:42.457Z,13.72
2023-05-02T01:25:28.764Z,13.75
2023-05-02T01:28:09.112Z,13.78
2023-05-02T01:30:42.891Z,13.82
2023-05-02T01:33:13.227Z,13.82
2023-05-02T01:35:43.937Z,13.83
2023-05-02T01:38:16.667Z,13.88
2023-05-02T01:40:46.624Z,13.88
2023-05-02T01:43:16.583Z,13.88
2023-05-02T01:45:48.341Z,13.85
2023-05-02T01:48:18.810Z,13.81
2023-05-02T01:50:48.774Z,13.83
2023-05-02T01:53:17.456Z,13.82
2023-05-02T01:55:47.548Z,13.73
2023-05-02T01:58:17.783Z,13.68
2023-05-02T02:00:47.880Z,13.71
2023-05-02T02:03:18.908Z,13.70
2023-05-02T02:05:50.294Z,13.69
2023-05-02T02:08:18.288Z,13.75
2023-05-02T02:10:49.920Z,13.76
2023-05-02T02:13:19.825Z,13.76
2023-05-02T02:15:52.062Z,13.71
2023-05-02T02:18:23.109Z,13.74
2023-05-02T02:20:52.151Z,13.77
2023-05-02T02:23:24.568Z,13.77
2023-05-02T02:25:54.419Z,13.75
2023-05-02T02:28:22.345Z,13.76
2023-05-02T02:30:51.891Z,13.71
2023-05-02T02:33:21.116Z,13.68
2023-05-02T02:35:54.853Z,13.63
2023-05-02T02:38:31.681Z,13.50
2023-05-02T02:41:07.532Z,13.35
2023-05-02T02:43:45.558Z,13.24
2023-05-02T02:46:29.217Z,13.25
2023-05-02T02:49:06.677Z,12.97
2023-05-02T02:51:48.864Z,12.90
2023-05-02T02:54:27.418Z,12.97
2023-05-02T02:57:03.268Z,13.15
2023-05-02T02:59:35.055Z,13.17
2023-05-02T03:02:09.271Z,13.25
2023-05-02T03:04:40.114Z,13.13
2023-05-02T03:07:08.317Z,12.98
2023-05-02T03:09:42.896Z,13.03
2023-05-02T03:12:13.646Z,13.11
2023-05-02T03:14:42.340Z,13.03
2023-05-02T03:17:11.630Z,13.17
2023-05-02T03:19:39.535Z,13.25
2023-05-02T03:22:07.612Z,13.20
2023-05-02T03:24:37.251Z,13.06
2023-05-02T03:27:06.367Z,12.87
2023-05-02T03:29:40.307Z,12.90
2023-05-02T03:32:08.824Z,13.00
2023-05-02T03:34:39.874Z,13.07
2023-05-02T03:37:08.682Z,13.08
2023-05-02T03:39:36.605Z,13.12
2023-05-02T03:42:06.591Z,13.11
2023-05-02T03:44:34.567Z,13.08
2023-05-02T03:47:03.495Z,13.08
2023-05-02T03:49:37.072Z,13.01
2023-05-02T03:52:06.995Z,12.93
2023-05-02T03:54:36.742Z,13.01
2023-05-02T03:57:05.918Z,12.97
2023-05-02T03:59:35.170Z,12.99
2023-05-02T04:02:11.265Z,13.02
2023-05-02T04:04:43.902Z,13.05
2023-05-02T04:07:19.278Z,13.17
2023-05-02T04:09:54.346Z,13.22
2023-05-02T04:12:22.431Z,13.26
2023-05-02T04:14:52.606Z,13.20
2023-05-02T04:17:24.139Z,13.16
2023-05-02T04:19:52.912Z,13.20
2023-05-02T04:22:26.432Z,13.24
2023-05-02T04:24:58.957Z,13.24
2023-05-02T04:27:28.639Z,13.11
2023-05-02T04:29:56.629Z,13.04
2023-05-02T04:32:24.824Z,13.10
2023-05-02T04:34:53.424Z,13.24
2023-05-02T04:37:22.674Z,13.32
2023-05-02T04:39:52.318Z,13.32
2023-05-02T04:42:25.058Z,13.00
2023-05-02T04:45:02.880Z,12.99
2023-05-02T04:47:31.074Z,12.90
2023-05-02T04:49:59.384Z,13.03
2023-05-02T04:52:27.381Z,13.30
2023-05-02T04:54:57.184Z,13.49
2023-05-02T04:57:25.614Z,13.67
2023-05-02T04:59:57.580Z,13.80
2023-05-02T05:02:26.677Z,13.87
2023-05-02T05:04:56.071Z,13.91
2023-05-02T05:07:24.270Z,13.88
2023-05-02T05:09:53.775Z,13.92
2023-05-02T05:12:25.617Z,13.94
2023-05-02T05:14:54.313Z,13.98
2023-05-02T05:17:24.488Z,13.76
2023-05-02T05:19:52.515Z,13.59
2023-05-02T05:22:21.613Z,13.66
2023-05-02T05:24:53.721Z,13.75
2023-05-02T05:27:23.467Z,13.80
2023-05-02T05:29:52.987Z,13.88
2023-05-02T05:32:21.947Z,13.91
2023-05-02T05:34:52.926Z,13.95
2023-05-02T05:37:22.917Z,13.90
2023-05-02T05:39:50.828Z,13.70
2023-05-02T05:42:18.904Z,13.70
2023-05-02T05:44:50.304Z,13.95
2023-05-02T05:47:22.767Z,14.13
2023-05-02T05:49:54.908Z,14.42
2023-05-02T05:52:25.156Z,14.64
2023-05-02T05:54:55.508Z,14.84
2023-05-02T05:57:24.057Z,14.94
2023-05-02T05:59:52.489Z,15.08
2023-05-02T06:02:22.991Z,15.23
2023-05-02T06:04:51.124Z,15.28
2023-05-02T06:07:22.017Z,15.38
2023-05-02T06:09:50.245Z,15.40
2023-05-02T06:12:19.461Z,15.35
2023-05-02T06:14:48.249Z,15.22
2023-05-02T06:17:16.634Z,15.25
2023-05-02T06:19:45.925Z,15.34
2023-05-02T06:22:13.986Z,15.42
2023-05-02T06:24:41.932Z,15.49
2023-05-02T06:27:09.760Z,15.64
2023-05-02T06:29:37.815Z,15.80
2023-05-02T06:32:06.570Z,15.95
2023-05-02T06:34:34.805Z,16.10
2023-05-02T06:37:04.127Z,16.33
2023-05-02T06:39:31.987Z,16.49
2023-05-02T06:42:00.148Z,16.68
2023-05-02T06:44:29.454Z,16.88
2023-05-02T06:46:57.364Z,17.07
2023-05-02T06:49:25.347Z,17.18
2023-05-02T06:51:53.224Z,17.31
2023-05-02T06:54:22.846Z,17.49
2023-05-02T06:56:50.808Z,17.45
2023-05-02T06:59:18.794Z,17.53
2023-05-02T07:01:46.693Z,17.61
2023-05-02T07:04:14.625Z,17.56
2023-05-02T07:06:42.621Z,17.56
2023-05-02T07:09:10.672Z,17.48
2023-05-02T07:11:40.070Z,17.46
2023-05-02T07:14:08.568Z,17.56
2023-05-02T07:16:36.670Z,17.58
2023-05-02T07:19:06.726Z,17.63
2023-05-02T07:21:34.747Z,17.76
2023-05-02T07:24:02.658Z,17.73
2023-05-02T07:26:31.398Z,17.72
2023-05-02T07:29:00.969Z,17.71
2023-05-02T07:31:28.848Z,17.70
2023-05-02T07:33:56.867Z,17.80
2023-05-02T07:36:24.918Z,17.80
2023-05-02T07:38:52.954Z,17.83
2023-05-02T07:41:21.014Z,17.85
2023-05-02T07:43:48.924Z,17.95
2023-05-02T07:46:18.223Z,18.05
2023-05-02T07:48:46.281Z,18.10
2023-05-02T07:51:14.224Z,18.11
2023-05-02T07:53:42.074Z,18.23
2023-05-02T07:56:10.019Z,18.38
2023-05-02T07:58:38.200Z,18.54
2023-05-02T08:01:06.292Z,18.53
2023-05-02T08:03:35.746Z,18.53
2023-05-02T08:06:04.178Z,18.53
2023-05-02T08:08:32.252Z,18.57
2023-05-02T08:11:00.118Z,18.67
2023-05-02T08:13:28.576Z,18.83
2023-05-02T08:15:58.342Z,18.97
2023-05-02T08:18:26.656Z,18.95
2023-05-02T08:20:57.752Z,18.94
2023-05-02T08:23:25.754Z,18.87
2023-05-02T08:25:53.759Z,18.85
2023-05-02T08:28:21.735Z,18.91
2023-05-02T08:30:49.743Z,19.01
2023-05-02T08:33:17.807Z,19.11
2023-05-02T08:35:45.978Z,19.22
2023-05-02T08:38:15.588Z,19.32
2023-05-02T08:40:43.585Z,19.50
2023-05-02T08:43:12.951Z,19.60
2023-05-02T08:45:41.884Z,19.64
2023-05-02T08:48:11.856Z,19.69
2023-05-02T08:50:41.761Z,19.71
2023-05-02T08:53:11.266Z,19.57
2023-05-02T08:55:41.999Z,19.65
2023-05-02T08:58:11.451Z,19.66
2023-05-02T09:00:41.341Z,19.72
2023-05-02T09:03:23.806Z,19.88
2023-05-02T09:05:55.193Z,19.97
2023-05-02T09:08:24.288Z,20.11
2023-05-02T09:10:53.932Z,20.24
2023-05-02T09:13:36.322Z,20.41
2023-05-02T09:16:06.433Z,20.51
2023-05-02T09:18:36.551Z,20.53
2023-05-02T09:21:08.955Z,20.42
2023-05-02T09:23:42.212Z,20.42
2023-05-02T09:26:17.024Z,20.33
2023-05-02T09:28:46.981Z,20.31
2023-05-02T09:31:22.873Z,20.32
2023-05-02T09:33:55.780Z,20.36
2023-05-02T09:36:23.917Z,20.34
2023-05-02T09:38:52.204Z,20.39
2023-05-02T09:41:22.145Z,20.38
2023-05-02T09:43:57.058Z,20.29
2023-05-02T09:46:25.069Z,20.21
2023-05-02T09:48:54.267Z,20.16
2023-05-02T09:51:23.058Z,20.20
2023-05-02T09:53:51.593Z,20.23
2023-05-02T09:56:21.890Z,20.23
2023-05-02T09:58:50.462Z,20.13
2023-05-02T10:01:19.623Z,20.07
2023-05-02T10:03:49.436Z,20.01
2023-05-02T10:06:20.125Z,20.02
2023-05-02T10:08:49.411Z,20.08
2023-05-02T10:11:17.401Z,20.11
2023-05-02T10:13:48.010Z,20.13
2023-05-02T10:16:24.550Z,20.12
2023-05-02T10:18:59.648Z,20.08
2023-05-02T10:21:28.512Z,20.12
2023-05-02T10:23:56.905Z,20.19
2023-05-02T10:26:25.189Z,20.23
2023-05-02T10:28:56.942Z,20.23
2023-05-02T10:31:25.848Z,20.20
2023-05-02T10:33:53.916Z,20.19
2023-05-02T10:36:23.740Z,20.22
2023-05-02T10:38:52.438Z,20.25
2023-05-02T10:41:23.458Z,20.43
2023-05-02T10:43:51.421Z,20.56
2023-05-02T10:46:32.944Z,20.66
2023-05-02T10:49:08.509Z,20.76
2023-05-02T10:51:37.984Z,20.82
2023-05-02T10:54:22.978Z,20.93
2023-05-02T10:57:05.933Z,20.98
2023-05-02T10:59:36.083Z,20.96
2023-05-02T11:02:27.977Z,20.98
2023-05-02T11:05:04.189Z,20.99
2023-05-02T11:07:35.826Z,21.01
2023-05-02T11:10:27.463Z,21.02
2023-05-02T11:12:57.365Z,20.99
2023-05-02T11:15:57.032Z,20.99
2023-05-02T11:18:26.373Z,20.98
2023-05-02T11:21:28.572Z,20.98
2023-05-02T11:24:29.771Z,20.98
2023-05-02T11:27:39.508Z,21.12
2023-05-02T11:30:09.577Z,21.27
2023-05-02T11:33:20.060Z,21.43
2023-05-02T11:35:50.078Z,21.58
2023-05-02T11:38:20.728Z,21.63
2023-05-02T11:40:56.960Z,21.68
2023-05-02T11:43:26.339Z,21.75
2023-05-02T11:45:55.170Z,21.72
2023-05-02T11:48:27.183Z,21.89
2023-05-02T11:50:58.295Z,22.01
2023-05-02T11:53:27.812Z,22.13
2023-05-02T11:55:57.439Z,22.24
2023-05-02T11:58:29.534Z,22.34
2023-05-02T12:00:57.554Z,22.49
2023-05-02T12:03:29.153Z,22.67
2023-05-02T12:05:59.677Z,22.88
2023-05-02T12:08:28.815Z,22.91
2023-05-02T12:10:57.513Z,22.91
2023-05-02T12:13:27.589Z,23.04
2023-05-02T12:15:56.417Z,23.07
2023-05-02T12:18:27.062Z,22.98
2023-05-02T12:20:56.375Z,23.02
2023-05-02T12:23:27.328Z,22.93
2023-05-02T12:25:55.227Z,22.89
2023-05-02T12:28:24.012Z,22.87
2023-05-02T12:30:52.713Z,22.85
2023-05-02T12:33:20.734Z,22.92
2023-05-02T12:35:48.975Z,23.05
2023-05-02T12:38:18.708Z,23.12
2023-05-02T12:40:53.355Z,23.31
2023-05-02T12:43:22.101Z,23.45
2023-05-02T12:45:50.820Z,23.51
2023-05-02T12:48:26.434Z,23.37
2023-05-02T12:50:55.821Z,23.16
2023-05-02T12:53:40.581Z,22.99
2023-05-02T12:56:10.607Z,22.87
2023-05-02T12:58:43.942Z,22.87
2023-05-02T13:01:12.684Z,22.76
2023-05-02T13:03:40.920Z,22.75
2023-05-02T13:06:09.275Z,22.92
2023-05-02T13:08:37.500Z,22.89
2023-05-02T13:11:05.877Z,22.92
2023-05-02T13:13:35.618Z,22.85
2023-05-02T13:16:04.085Z,22.64
2023-05-02T13:18:32.108Z,22.40
2023-05-02T13:21:00.116Z,22.44
2023-05-02T13:23:28.039Z,22.58
2023-05-02T13:25:55.976Z,22.63
2023-05-02T13:28:23.856Z,22.70
2023-05-02T13:30:53.240Z,22.59
2023-05-02T13:33:21.198Z,22.49
2023-05-02T13:35:49.149Z,22.44
2023-05-02T13:38:17.085Z,22.61
2023-05-02T13:40:45.351Z,22.85
2023-05-02T13:43:13.253Z,23.07
2023-05-02T13:45:41.509Z,23.31
2023-05-02T13:48:10.848Z,23.48
2023-05-02T13:50:39.159Z,23.44
2023-05-02T13:53:07.158Z,23.30
2023-05-02T13:55:35.147Z,23.39
2023-05-02T13:58:03.120Z,23.32
2023-05-02T14:00:31.280Z,23.27
2023-05-02T14:02:59.277Z,23.33
2023-05-02T14:05:28.612Z,23.31
2023-05-02T14:07:56.491Z,23.18
2023-05-02T14:10:24.406Z,23.00
2023-05-02T14:12:53.102Z,22.95
2023-05-02T14:15:21.016Z,22.99
2023-05-02T14:17:50.506Z,22.94
2023-05-02T14:20:18.458Z,22.97
2023-05-02T14:22:47.727Z,22.89
2023-05-02T14:25:19.614Z,23.04
2023-05-02T14:27:47.531Z,23.26
2023-05-02T14:30:15.462Z,23.12
2023-05-02T14:32:43.382Z,22.94
2023-05-02T14:35:11.482Z,22.68
2023-05-02T14:37:39.430Z,22.76
2023-05-02T14:40:10.705Z,22.98
2023-05-02T14:42:38.549Z,23.06
2023-05-02T14:45:07.453Z,22.99
2023-05-02T14:47:35.431Z,22.88
2023-05-02T14:50:04.425Z,22.56
2023-05-02T14:52:32.890Z,22.53
2023-05-02T14:55:01.057Z,22.69
2023-05-02T14:57:30.970Z,22.72
2023-05-02T14:59:59.135Z,22.61
2023-05-02T15:02:27.202Z,22.51
2023-05-02T15:04:55.390Z,22.48
2023-05-02T15:07:23.619Z,22.38
2023-05-02T15:09:51.792Z,22.21
2023-05-02T15:12:20.048Z,22.21
2023-05-02T15:14:49.444Z,22.07
2023-05-02T15:17:17.398Z,22.01
2023-05-02T15:19:45.235Z,21.87
2023-05-02T15:22:13.149Z,21.75
2023-05-02T15:24:40.993Z,21.61
2023-05-02T15:27:09.694Z,21.51
2023-05-02T15:29:37.535Z,21.39
2023-05-02T15:32:07.072Z,21.46
2023-05-02T15:34:35.345Z,21.52
2023-05-02T15:37:03.625Z,21.49
2023-05-02T15:39:31.538Z,21.45
2023-05-02T15:41:59.453Z,21.40
2023-05-02T15:44:28.069Z,21.24
2023-05-02T15:46:56.111Z,21.04
2023-05-02T15:49:31.599Z,20.80
2023-05-02T15:51:59.550Z,20.63
2023-05-02T15:54:27.671Z,20.45
2023-05-02T15:56:55.888Z,20.38
2023-05-02T15:59:23.924Z,20.27
2023-05-02T16:01:51.863Z,20.18
2023-05-02T16:04:19.949Z,20.13
2023-05-02T16:06:49.244Z,20.01
2023-05-02T16:09:17.192Z,19.93
2023-05-02T16:11:45.429Z,19.86
2023-05-02T16:14:13.311Z,19.80
2023-05-02T16:16:41.403Z,19.77
2023-05-02T16:19:13.375Z,19.72
2023-05-02T16:21:42.227Z,19.69
2023-05-02T16:24:11.587Z,19.56
2023-05-02T16:26:39.483Z,19.45
2023-05-02T16:29:07.788Z,19.42
2023-05-02T16:31:36.391Z,19.32
2023-05-02T16:34:04.411Z,19.22
2023-05-02T16:36:33.334Z,19.16
2023-05-02T16:39:01.237Z,19.11
2023-05-02T16:41:30.437Z,19.12
2023-05-02T16:43:58.358Z,19.07
2023-05-02T16:46:26.868Z,19.00
2023-05-02T16:48:54.787Z,18.99
2023-05-02T16:51:22.862Z,19.00
2023-05-02T16:53:51.055Z,19.00
2023-05-02T16:56:18.942Z,18.95
2023-05-02T16:58:48.234Z,18.88
2023-05-02T17:01:17.294Z,18.82
2023-05-02T17:03:45.356Z,18.84
2023-05-02T17:06:13.343Z,18.81
2023-05-02T17:08:41.562Z,18.82
2023-05-02T17:11:09.619Z,18.81
2023-05-02T17:13:37.718Z,18.83
2023-05-02T17:16:08.220Z,18.88
2023-05-02T17:18:36.343Z,18.92
2023-05-02T17:21:04.280Z,18.93
2023-05-02T17:23:32.351Z,18.94
2023-05-02T17:26:00.759Z,18.67
2023-05-02T17:28:29.243Z,18.50
2023-05-02T17:30:59.347Z,18.28
2023-05-02T17:33:28.941Z,18.15
2023-05-02T17:35:56.874Z,18.03
2023-05-02T17:38:26.702Z,17.94
2023-05-02T17:40:54.725Z,17.86
2023-05-02T17:43:22.614Z,17.76
2023-05-02T17:45:50.659Z,17.68
2023-05-02T17:48:18.908Z,17.62
2023-05-02T17:50:49.865Z,17.58
2023-05-02T17:53:17.935Z,17.53
2023-05-02T17:55:45.859Z,17.48
2023-05-02T17:58:14.080Z,17.44
2023-05-02T18:00:42.014Z,17.47
2023-05-02T18:03:10.295Z,17.55
2023-05-02T18:05:39.625Z,17.57
2023-05-02T18:08:08.917Z,17.55
2023-05-02T18:10:37.915Z,17.16
2023-05-02T18:13:05.872Z,16.63
2023-05-02T18:15:33.893Z,16.31
2023-05-02T18:18:01.826Z,16.10
2023-05-02T18:20:29.762Z,15.96
2023-05-02T18:22:59.088Z,15.77
2023-05-02T18:25:28.315Z,15.66
2023-05-02T18:27:56.280Z,15.50
2023-05-02T18:30:24.194Z,15.41
2023-05-02T18:32:52.124Z,15.36
2023-05-02T18:35:20.119Z,15.30
2023-05-02T18:37:48.063Z,15.33
2023-05-02T18:40:16.295Z,15.48
2023-05-02T18:42:45.521Z,15.51
2023-05-02T18:45:13.359Z,15.55
2023-05-02T18:47:41.325Z,15.55
2023-05-02T18:50:09.817Z,15.51
2023-05-02T18:52:37.704Z,15.50
2023-05-02T18:55:06.495Z,15.87
2023-05-02T18:57:34.713Z,16.09
2023-05-02T19:00:06.348Z,16.30
2023-05-02T19:02:34.535Z,16.47
2023-05-02T19:05:02.683Z,16.58
2023-05-02T19:07:30.787Z,16.38
2023-05-02T19:09:58.804Z,16.14
2023-05-02T19:12:26.785Z,15.90
2023-05-02T19:14:54.797Z,15.81
2023-05-02T19:17:26.909Z,15.90
2023-05-02T19:19:56.173Z,16.13
2023-05-02T19:22:27.630Z,16.36
2023-05-02T19:24:55.776Z,16.52
2023-05-02T19:27:23.749Z,16.62
2023-05-02T19:29:54.060Z,16.65
2023-05-02T19:32:22.865Z,16.62
2023-05-02T19:34:52.262Z,16.67
2023-05-02T19:37:20.154Z,16.76
2023-05-02T19:39:48.108Z,16.82
2023-05-02T19:42:16.339Z,16.81
2023-05-02T19:44:44.164Z,16.85
2023-05-02T19:47:12.185Z,16.85
2023-05-02T19:49:40.014Z,16.80
2023-05-02T19:52:09.242Z,16.65
2023-05-02T19:54:37.377Z,16.51
2023-05-02T19:57:05.307Z,16.59
2023-05-02T19:59:33.235Z,16.67
2023-05-02T20:02:01.197Z,16.75
2023-05-02T20:04:29.166Z,16.81
2023-05-02T20:06:57.061Z,16.80
2023-05-02T20:09:26.367Z,16.84
2023-05-02T20:11:54.272Z,16.84
2023-05-02T20:14:22.244Z,16.88
2023-05-02T20:16:50.227Z,16.89
2023-05-02T20:19:19.914Z,16.98
2023-05-02T20:21:48.582Z,16.88
2023-05-02T20:24:16.549Z,16.58
2023-05-02T20:26:45.823Z,16.46
2023-05-02T20:29:13.902Z,16.45
2023-05-02T20:31:42.163Z,16.44
2023-05-02T20:34:10.149Z,16.39
2023-05-02T20:36:38.331Z,16.32
2023-05-02T20:39:07.754Z,16.33
2023-05-02T20:41:36.395Z,16.36
2023-05-02T20:44:06.356Z,16.43
2023-05-02T20:46:34.320Z,16.47
2023-05-02T20:49:02.259Z,16.41
2023-05-02T20:51:31.194Z,16.23
2023-05-02T20:53:59.286Z,16.04
2023-05-02T20:56:27.404Z,16.05
2023-05-02T20:58:55.239Z,16.12
2023-05-02T21:01:24.541Z,16.23
2023-05-02T21:03:52.485Z,16.27
2023-05-02T21:06:20.850Z,16.05
2023-05-02T21:08:48.964Z,15.89
2023-05-02T21:11:17.346Z,15.90
2023-05-02T21:13:45.389Z,16.04
2023-05-02T21:16:18.075Z,15.92
2023-05-02T21:18:47.711Z,15.76
2023-05-02T21:21:15.772Z,15.73
2023-05-02T21:23:43.723Z,15.76
2023-05-02T21:26:11.654Z,15.69
2023-05-02T21:28:40.016Z,15.66
2023-05-02T21:31:08.619Z,15.61
2023-05-02T21:33:36.674Z,15.44
2023-05-02T21:36:07.151Z,15.35
2023-05-02T21:38:35.060Z,15.28
2023-05-02T21:41:03.852Z,15.19
2023-05-02T21:43:32.792Z,15.16
2023-05-02T21:46:00.795Z,15.15
2023-05-02T21:48:28.872Z,15.12
2023-05-02T21:50:56.749Z,15.08
2023-05-02T21:53:27.061Z,15.05
2023-05-02T21:55:54.914Z,15.07
2023-05-02T21:58:22.780Z,15.13
2023-05-02T22:00:50.750Z,15.08
2023-05-02T22:03:18.819Z,15.08
2023-05-02T22:05:50.321Z,15.12
2023-05-02T22:08:20.397Z,15.14
2023-05-02T22:10:49.670Z,15.20
2023-05-02T22:13:18.142Z,15.37
2023-05-02T22:15:47.757Z,15.47
2023-05-02T22:18:16.923Z,15.50
2023-05-02T22:20:46.505Z,15.57
2023-05-02T22:23:15.165Z,15.62
2023-05-02T22:25:45.029Z,15.54
2023-05-02T22:28:14.500Z,15.52
2023-05-02T22:30:43.582Z,15.47
2023-05-02T22:33:12.207Z,15.31
2023-05-02T22:35:40.392Z,15.21
2023-05-02T22:38:09.774Z,15.27
2023-05-02T22:40:37.627Z,15.20
2023-05-02T22:43:05.546Z,15.07
2023-05-02T22:45:36.302Z,15.10
2023-05-02T22:48:04.639Z,15.14
2023-05-02T22:50:32.619Z,15.18
2023-05-02T22:53:03.584Z,14.99
2023-05-02T22:55:31.544Z,14.79
2023-05-02T22:57:59.465Z,14.86
2023-05-02T23:00:27.365Z,14.77
2023-05-02T23:02:57.121Z,14.72
2023-05-02T23:05:25.234Z,14.69
2023-05-02T23:07:53.202Z,14.79
2023-05-02T23:10:21.166Z,14.98
2023-05-02T23:12:49.088Z,14.97
2023-05-02T23:15:17.086Z,15.28
2023-05-02T23:17:45.118Z,15.27
2023-05-02T23:20:19.412Z,15.21
2023-05-02T23:22:47.494Z,15.10
2023-05-02T23:25:16.365Z,15.04
2023-05-02T23:27:44.343Z,15.01
2023-05-02T23:30:12.650Z,14.96
2023-05-02T23:32:40.964Z,14.94
2023-05-02T23:35:10.055Z,14.96
2023-05-02T23:37:40.120Z,14.92
2023-05-02T23:40:09.808Z,14.99
2023-05-02T23:42:40.276Z,15.03
2023-05-02T23:45:09.136Z,15.00
2023-05-02T23:47:37.392Z,15.03
2023-05-02T23:50:05.733Z,15.04
2023-05-02T23:52:33.916Z,14.95
2023-05-02T23:55:03.247Z,14.75
2023-05-02T23:57:31.251Z,14.70
2023-05-02T23:59:59.150Z,14.68
